sensor_id;sensor_type;location;lat;lon;timestamp;P1;durP1;ratioP1;P2;durP2;ratioP2
76167;SDS011;64927;48.214;16.378;2023-11-19T00:00:48;5.50;;;3.33;;
76167;SDS011;64927;48.214;16.378;2023-11-19T00:03:16;5.10;;;2.72;;
76167;SDS011;64927;48.214;16.378;2023-11-19T00:05:45;4.38;;;2.88;;
76167;SDS011;64927;48.214;16.378;2023-11-19T00:08:15;8.18;;;4.00;;
76167;SDS011;64927;48.214;16.378;2023-11-19T00:10:43;7.50;;;3.80;;
76167;SDS011;64927;48.214;16.378;2023-11-19T00:13:09;9.60;;;3.63;;
76167;SDS011;64927;48.214;16.378;2023-11-19T00:15:37;7.47;;;3.35;;
76167;SDS011;64927;48.214;16.378;2023-11-19T00:18:03;8.70;;;3.30;;
76167;SDS011;64927;48.214;16.378;2023-11-19T00:20:29;7.10;;;3.00;;
76167;SDS011;64927;48.214;16.378;2023-11-19T00:22:55;6.65;;;3.35;;
76167;SDS011;64927;48.214;16.378;2023-11-19T00:25:23;5.28;;;2.60;;
76167;SDS011;64927;48.214;16.378;2023-11-19T00:27:49;7.97;;;2.63;;
76167;SDS011;64927;48.214;16.378;2023-11-19T00:30:15;6.95;;;3.40;;
76167;SDS011;64927;48.214;16.378;2023-11-19T00:32:41;7.43;;;3.15;;
76167;SDS011;64927;48.214;16.378;2023-11-19T00:35:07;6.80;;;3.22;;
76167;SDS011;64927;48.214;16.378;2023-11-19T00:37:35;7.88;;;4.07;;
76167;SDS011;64927;48.214;16.378;2023-11-19T00:40:01;5.97;;;3.30;;
76167;SDS011;64927;48.214;16.378;2023-11-19T00:42:30;6.78;;;2.90;;
76167;SDS011;64927;48.214;16.378;2023-11-19T00:44:56;4.47;;;2.53;;
76167;SDS011;64927;48.214;16.378;2023-11-19T00:47:21;2.88;;;1.88;;
76167;SDS011;64927;48.214;16.378;2023-11-19T00:49:47;5.47;;;2.65;;
76167;SDS011;64927;48.214;16.378;2023-11-19T00:52:18;4.25;;;2.75;;
76167;SDS011;64927;48.214;16.378;2023-11-19T00:54:44;4.72;;;2.00;;
76167;SDS011;64927;48.214;16.378;2023-11-19T00:57:09;5.90;;;3.10;;
76167;SDS011;64927;48.214;16.378;2023-11-19T00:59:35;4.55;;;2.80;;
76167;SDS011;64927;48.214;16.378;2023-11-19T01:02:00;5.20;;;2.53;;
76167;SDS011;64927;48.214;16.378;2023-11-19T01:04:37;5.25;;;2.83;;
76167;SDS011;64927;48.214;16.378;2023-11-19T01:07:03;5.03;;;2.90;;
76167;SDS011;64927;48.214;16.378;2023-11-19T01:09:30;5.03;;;1.83;;
76167;SDS011;64927;48.214;16.378;2023-11-19T01:12:03;5.20;;;2.83;;
76167;SDS011;64927;48.214;16.378;2023-11-19T01:14:29;5.13;;;2.55;;
76167;SDS011;64927;48.214;16.378;2023-11-19T01:16:55;5.82;;;2.95;;
76167;SDS011;64927;48.214;16.378;2023-11-19T01:19:21;4.68;;;2.80;;
76167;SDS011;64927;48.214;16.378;2023-11-19T01:21:48;3.88;;;2.58;;
76167;SDS011;64927;48.214;16.378;2023-11-19T01:24:16;8.20;;;1.95;;
76167;SDS011;64927;48.214;16.378;2023-11-19T01:26:44;3.17;;;1.80;;
76167;SDS011;64927;48.214;16.378;2023-11-19T01:29:12;5.13;;;2.45;;
76167;SDS011;64927;48.214;16.378;2023-11-19T01:31:39;4.18;;;2.50;;
76167;SDS011;64927;48.214;16.378;2023-11-19T01:34:08;5.18;;;2.53;;
76167;SDS011;64927;48.214;16.378;2023-11-19T01:36:36;2.88;;;1.92;;
76167;SDS011;64927;48.214;16.378;2023-11-19T01:39:02;3.97;;;2.30;;
76167;SDS011;64927;48.214;16.378;2023-11-19T01:41:29;5.47;;;1.83;;
76167;SDS011;64927;48.214;16.378;2023-11-19T01:44:05;3.00;;;1.95;;
76167;SDS011;64927;48.214;16.378;2023-11-19T01:46:34;4.85;;;2.72;;
76167;SDS011;64927;48.214;16.378;2023-11-19T01:49:00;3.08;;;2.05;;
76167;SDS011;64927;48.214;16.378;2023-11-19T01:51:27;4.18;;;1.85;;
76167;SDS011;64927;48.214;16.378;2023-11-19T01:53:53;3.72;;;2.28;;
76167;SDS011;64927;48.214;16.378;2023-11-19T01:56:22;5.57;;;2.25;;
76167;SDS011;64927;48.214;16.378;2023-11-19T01:58:49;4.72;;;2.55;;
76167;SDS011;64927;48.214;16.378;2023-11-19T02:01:17;4.68;;;2.13;;
76167;SDS011;64927;48.214;16.378;2023-11-19T02:03:43;2.58;;;1.83;;
76167;SDS011;64927;48.214;16.378;2023-11-19T02:06:09;3.35;;;2.03;;
76167;SDS011;64927;48.214;16.378;2023-11-19T02:08:35;3.65;;;2.28;;
76167;SDS011;64927;48.214;16.378;2023-11-19T02:11:03;5.30;;;2.03;;
76167;SDS011;64927;48.214;16.378;2023-11-19T02:13:31;3.90;;;2.20;;
76167;SDS011;64927;48.214;16.378;2023-11-19T02:16:02;3.47;;;1.92;;
76167;SDS011;64927;48.214;16.378;2023-11-19T02:18:28;5.25;;;2.38;;
76167;SDS011;64927;48.214;16.378;2023-11-19T02:20:55;5.35;;;3.15;;
76167;SDS011;64927;48.214;16.378;2023-11-19T02:23:26;5.82;;;2.95;;
76167;SDS011;64927;48.214;16.378;2023-11-19T02:26:30;3.10;;;2.42;;
76167;SDS011;64927;48.214;16.378;2023-11-19T02:28:47;6.28;;;2.55;;
76167;SDS011;64927;48.214;16.378;2023-11-19T02:31:13;5.25;;;2.80;;
76167;SDS011;64927;48.214;16.378;2023-11-19T02:33:39;2.65;;;1.85;;
76167;SDS011;64927;48.214;16.378;2023-11-19T02:36:05;3.15;;;1.90;;
76167;SDS011;64927;48.214;16.378;2023-11-19T02:38:33;5.82;;;2.08;;
76167;SDS011;64927;48.214;16.378;2023-11-19T02:40:59;4.47;;;2.10;;
76167;SDS011;64927;48.214;16.378;2023-11-19T02:43:30;4.32;;;2.10;;
76167;SDS011;64927;48.214;16.378;2023-11-19T02:45:58;2.42;;;2.15;;
76167;SDS011;64927;48.214;16.378;2023-11-19T02:48:27;4.95;;;2.22;;
76167;SDS011;64927;48.214;16.378;2023-11-19T02:50:52;3.85;;;2.55;;
76167;SDS011;64927;48.214;16.378;2023-11-19T02:53:18;23.48;;;2.38;;
76167;SDS011;64927;48.214;16.378;2023-11-19T02:55:47;4.65;;;2.05;;
76167;SDS011;64927;48.214;16.378;2023-11-19T02:58:15;2.28;;;1.65;;
76167;SDS011;64927;48.214;16.378;2023-11-19T03:00:49;3.30;;;2.00;;
76167;SDS011;64927;48.214;16.378;2023-11-19T03:03:23;5.25;;;1.90;;
76167;SDS011;64927;48.214;16.378;2023-11-19T03:05:53;3.63;;;2.08;;
76167;SDS011;64927;48.214;16.378;2023-11-19T03:08:21;4.20;;;1.77;;
76167;SDS011;64927;48.214;16.378;2023-11-19T03:10:49;3.30;;;1.92;;
76167;SDS011;64927;48.214;16.378;2023-11-19T03:13:15;3.10;;;1.85;;
76167;SDS011;64927;48.214;16.378;2023-11-19T03:15:42;4.35;;;1.83;;
76167;SDS011;64927;48.214;16.378;2023-11-19T03:18:10;3.90;;;2.20;;
76167;SDS011;64927;48.214;16.378;2023-11-19T03:20:36;4.40;;;2.20;;
76167;SDS011;64927;48.214;16.378;2023-11-19T03:23:02;4.25;;;1.73;;
76167;SDS011;64927;48.214;16.378;2023-11-19T03:25:27;3.58;;;2.10;;
76167;SDS011;64927;48.214;16.378;2023-11-19T03:28:01;1.60;;;1.25;;
76167;SDS011;64927;48.214;16.378;2023-11-19T03:30:27;2.38;;;1.42;;
76167;SDS011;64927;48.214;16.378;2023-11-19T03:32:56;2.63;;;1.63;;
76167;SDS011;64927;48.214;16.378;2023-11-19T03:35:26;4.55;;;2.13;;
76167;SDS011;64927;48.214;16.378;2023-11-19T03:37:53;2.17;;;1.65;;
76167;SDS011;64927;48.214;16.378;2023-11-19T03:40:18;2.25;;;1.33;;
76167;SDS011;64927;48.214;16.378;2023-11-19T03:42:44;3.08;;;1.77;;
76167;SDS011;64927;48.214;16.378;2023-11-19T03:45:11;6.25;;;2.00;;
76167;SDS011;64927;48.214;16.378;2023-11-19T03:47:37;3.72;;;2.10;;
76167;SDS011;64927;48.214;16.378;2023-11-19T03:50:05;3.53;;;1.90;;
76167;SDS011;64927;48.214;16.378;2023-11-19T03:52:32;3.97;;;1.92;;
76167;SDS011;64927;48.214;16.378;2023-11-19T03:54:58;5.28;;;2.33;;
76167;SDS011;64927;48.214;16.378;2023-11-19T03:57:24;2.70;;;1.75;;
76167;SDS011;64927;48.214;16.378;2023-11-19T03:59:49;3.20;;;2.03;;
76167;SDS011;64927;48.214;16.378;2023-11-19T04:02:17;3.60;;;1.85;;
76167;SDS011;64927;48.214;16.378;2023-11-19T04:04:43;5.13;;;2.38;;
76167;SDS011;64927;48.214;16.378;2023-11-19T04:07:08;5.15;;;2.30;;
76167;SDS011;64927;48.214;16.378;2023-11-19T04:09:34;5.80;;;2.72;;
76167;SDS011;64927;48.214;16.378;2023-11-19T04:12:02;3.50;;;2.00;;
76167;SDS011;64927;48.214;16.378;2023-11-19T04:14:28;4.50;;;2.20;;
76167;SDS011;64927;48.214;16.378;2023-11-19T04:16:54;3.83;;;1.55;;
76167;SDS011;64927;48.214;16.378;2023-11-19T04:19:20;2.17;;;1.67;;
76167;SDS011;64927;48.214;16.378;2023-11-19T04:21:48;3.47;;;1.92;;
76167;SDS011;64927;48.214;16.378;2023-11-19T04:24:17;2.67;;;1.33;;
76167;SDS011;64927;48.214;16.378;2023-11-19T04:26:43;2.47;;;1.58;;
76167;SDS011;64927;48.214;16.378;2023-11-19T04:29:15;2.95;;;1.58;;
76167;SDS011;64927;48.214;16.378;2023-11-19T04:31:44;2.85;;;1.80;;
76167;SDS011;64927;48.214;16.378;2023-11-19T04:34:11;2.70;;;1.65;;
76167;SDS011;64927;48.214;16.378;2023-11-19T04:36:37;2.50;;;1.75;;
76167;SDS011;64927;48.214;16.378;2023-11-19T04:39:08;2.90;;;1.67;;
76167;SDS011;64927;48.214;16.378;2023-11-19T04:41:41;4.65;;;2.35;;
76167;SDS011;64927;48.214;16.378;2023-11-19T04:44:16;4.00;;;2.03;;
76167;SDS011;64927;48.214;16.378;2023-11-19T04:46:42;2.92;;;1.92;;
76167;SDS011;64927;48.214;16.378;2023-11-19T04:49:10;3.22;;;2.05;;
76167;SDS011;64927;48.214;16.378;2023-11-19T04:51:44;3.88;;;1.73;;
76167;SDS011;64927;48.214;16.378;2023-11-19T04:54:13;4.22;;;2.03;;
76167;SDS011;64927;48.214;16.378;2023-11-19T04:56:39;2.75;;;1.67;;
76167;SDS011;64927;48.214;16.378;2023-11-19T04:59:07;3.03;;;1.95;;
76167;SDS011;64927;48.214;16.378;2023-11-19T05:01:35;3.17;;;2.08;;
76167;SDS011;64927;48.214;16.378;2023-11-19T05:04:08;4.95;;;2.35;;
76167;SDS011;64927;48.214;16.378;2023-11-19T05:06:34;4.07;;;2.42;;
76167;SDS011;64927;48.214;16.378;2023-11-19T05:09:00;5.38;;;2.75;;
76167;SDS011;64927;48.214;16.378;2023-11-19T05:11:26;3.58;;;2.30;;
76167;SDS011;64927;48.214;16.378;2023-11-19T05:13:53;4.53;;;2.38;;
76167;SDS011;64927;48.214;16.378;2023-11-19T05:16:19;6.95;;;2.47;;
76167;SDS011;64927;48.214;16.378;2023-11-19T05:18:45;4.55;;;2.10;;
76167;SDS011;64927;48.214;16.378;2023-11-19T05:21:13;1.90;;;1.65;;
76167;SDS011;64927;48.214;16.378;2023-11-19T05:23:39;3.75;;;2.33;;
76167;SDS011;64927;48.214;16.378;2023-11-19T05:26:07;4.35;;;2.40;;
76167;SDS011;64927;48.214;16.378;2023-11-19T05:28:37;4.88;;;2.65;;
76167;SDS011;64927;48.214;16.378;2023-11-19T05:31:04;3.33;;;2.03;;
76167;SDS011;64927;48.214;16.378;2023-11-19T05:33:30;4.25;;;2.25;;
76167;SDS011;64927;48.214;16.378;2023-11-19T05:35:56;5.80;;;2.33;;
76167;SDS011;64927;48.214;16.378;2023-11-19T05:38:22;8.13;;;2.83;;
76167;SDS011;64927;48.214;16.378;2023-11-19T05:40:50;3.63;;;2.20;;
76167;SDS011;64927;48.214;16.378;2023-11-19T05:43:18;3.38;;;1.85;;
76167;SDS011;64927;48.214;16.378;2023-11-19T05:45:43;3.95;;;2.13;;
76167;SDS011;64927;48.214;16.378;2023-11-19T05:48:09;3.53;;;2.05;;
76167;SDS011;64927;48.214;16.378;2023-11-19T05:50:35;4.50;;;2.42;;
76167;SDS011;64927;48.214;16.378;2023-11-19T05:53:03;7.68;;;3.20;;
76167;SDS011;64927;48.214;16.378;2023-11-19T05:55:33;13.00;;;2.72;;
76167;SDS011;64927;48.214;16.378;2023-11-19T05:57:59;4.45;;;2.13;;
76167;SDS011;64927;48.214;16.378;2023-11-19T06:00:25;2.92;;;2.03;;
76167;SDS011;64927;48.214;16.378;2023-11-19T06:02:51;3.97;;;2.38;;
76167;SDS011;64927;48.214;16.378;2023-11-19T06:05:17;4.28;;;2.58;;
76167;SDS011;64927;48.214;16.378;2023-11-19T06:07:45;3.50;;;2.30;;
76167;SDS011;64927;48.214;16.378;2023-11-19T06:10:11;5.20;;;2.85;;
76167;SDS011;64927;48.214;16.378;2023-11-19T06:12:41;4.93;;;2.55;;
76167;SDS011;64927;48.214;16.378;2023-11-19T06:15:07;4.90;;;2.67;;
76167;SDS011;64927;48.214;16.378;2023-11-19T06:17:33;5.97;;;3.28;;
76167;SDS011;64927;48.214;16.378;2023-11-19T06:20:04;6.60;;;3.33;;
76167;SDS011;64927;48.214;16.378;2023-11-19T06:22:31;5.63;;;2.63;;
76167;SDS011;64927;48.214;16.378;2023-11-19T06:24:57;6.97;;;3.17;;
76167;SDS011;64927;48.214;16.378;2023-11-19T06:27:23;4.57;;;3.15;;
76167;SDS011;64927;48.214;16.378;2023-11-19T06:29:51;4.53;;;2.60;;
76167;SDS011;64927;48.214;16.378;2023-11-19T06:32:17;5.25;;;2.70;;
76167;SDS011;64927;48.214;16.378;2023-11-19T06:34:44;3.22;;;2.00;;
76167;SDS011;64927;48.214;16.378;2023-11-19T06:37:12;4.68;;;2.55;;
76167;SDS011;64927;48.214;16.378;2023-11-19T06:39:38;7.75;;;3.53;;
76167;SDS011;64927;48.214;16.378;2023-11-19T06:42:04;5.68;;;3.08;;
76167;SDS011;64927;48.214;16.378;2023-11-19T06:44:29;4.57;;;2.47;;
76167;SDS011;64927;48.214;16.378;2023-11-19T06:46:55;5.57;;;2.92;;
76167;SDS011;64927;48.214;16.378;2023-11-19T06:49:21;3.75;;;2.35;;
76167;SDS011;64927;48.214;16.378;2023-11-19T06:51:46;6.32;;;2.67;;
76167;SDS011;64927;48.214;16.378;2023-11-19T06:54:14;6.25;;;2.58;;
76167;SDS011;64927;48.214;16.378;2023-11-19T06:56:41;6.25;;;2.63;;
76167;SDS011;64927;48.214;16.378;2023-11-19T06:59:06;7.78;;;2.65;;
76167;SDS011;64927;48.214;16.378;2023-11-19T07:01:36;5.10;;;2.42;;
76167;SDS011;64927;48.214;16.378;2023-11-19T07:04:04;4.82;;;2.67;;
76167;SDS011;64927;48.214;16.378;2023-11-19T07:06:34;5.75;;;3.08;;
76167;SDS011;64927;48.214;16.378;2023-11-19T07:09:01;5.15;;;3.13;;
76167;SDS011;64927;48.214;16.378;2023-11-19T07:11:34;7.90;;;3.67;;
76167;SDS011;64927;48.214;16.378;2023-11-19T07:14:10;6.03;;;2.67;;
76167;SDS011;64927;48.214;16.378;2023-11-19T07:16:39;7.03;;;3.63;;
76167;SDS011;64927;48.214;16.378;2023-11-19T07:19:05;4.78;;;3.05;;
76167;SDS011;64927;48.214;16.378;2023-11-19T07:21:31;6.68;;;3.20;;
76167;SDS011;64927;48.214;16.378;2023-11-19T07:23:58;5.95;;;2.22;;
76167;SDS011;64927;48.214;16.378;2023-11-19T07:26:24;4.65;;;2.65;;
76167;SDS011;64927;48.214;16.378;2023-11-19T07:28:50;4.43;;;2.55;;
76167;SDS011;64927;48.214;16.378;2023-11-19T07:31:16;4.03;;;2.47;;
76167;SDS011;64927;48.214;16.378;2023-11-19T07:33:45;5.53;;;3.00;;
76167;SDS011;64927;48.214;16.378;2023-11-19T07:36:15;6.20;;;3.25;;
76167;SDS011;64927;48.214;16.378;2023-11-19T07:38:45;4.18;;;2.42;;
76167;SDS011;64927;48.214;16.378;2023-11-19T07:41:13;5.80;;;3.03;;
76167;SDS011;64927;48.214;16.378;2023-11-19T07:43:44;3.80;;;2.17;;
76167;SDS011;64927;48.214;16.378;2023-11-19T07:46:15;4.63;;;2.20;;
76167;SDS011;64927;48.214;16.378;2023-11-19T07:48:41;4.40;;;2.67;;
76167;SDS011;64927;48.214;16.378;2023-11-19T07:51:07;4.93;;;2.70;;
76167;SDS011;64927;48.214;16.378;2023-11-19T07:53:33;4.00;;;2.75;;
76167;SDS011;64927;48.214;16.378;2023-11-19T07:55:59;8.15;;;3.05;;
76167;SDS011;64927;48.214;16.378;2023-11-19T07:58:25;5.43;;;2.83;;
76167;SDS011;64927;48.214;16.378;2023-11-19T08:00:53;3.63;;;2.25;;
76167;SDS011;64927;48.214;16.378;2023-11-19T08:03:19;3.83;;;2.35;;
76167;SDS011;64927;48.214;16.378;2023-11-19T08:05:44;4.70;;;2.15;;
76167;SDS011;64927;48.214;16.378;2023-11-19T08:08:11;5.07;;;3.78;;
76167;SDS011;64927;48.214;16.378;2023-11-19T08:10:39;5.32;;;2.70;;
76167;SDS011;64927;48.214;16.378;2023-11-19T08:13:08;5.47;;;2.95;;
76167;SDS011;64927;48.214;16.378;2023-11-19T08:15:36;4.10;;;2.30;;
76167;SDS011;64927;48.214;16.378;2023-11-19T08:18:05;5.93;;;3.08;;
76167;SDS011;64927;48.214;16.378;2023-11-19T08:20:32;6.40;;;2.95;;
76167;SDS011;64927;48.214;16.378;2023-11-19T08:23:01;5.45;;;2.50;;
76167;SDS011;64927;48.214;16.378;2023-11-19T08:25:28;3.67;;;2.13;;
76167;SDS011;64927;48.214;16.378;2023-11-19T08:27:54;4.53;;;2.22;;
76167;SDS011;64927;48.214;16.378;2023-11-19T08:30:20;4.47;;;2.40;;
76167;SDS011;64927;48.214;16.378;2023-11-19T08:32:45;4.30;;;2.60;;
76167;SDS011;64927;48.214;16.378;2023-11-19T08:35:11;3.97;;;2.53;;
76167;SDS011;64927;48.214;16.378;2023-11-19T08:37:36;4.28;;;2.35;;
76167;SDS011;64927;48.214;16.378;2023-11-19T08:40:03;5.40;;;2.33;;
76167;SDS011;64927;48.214;16.378;2023-11-19T08:42:29;3.05;;;2.28;;
76167;SDS011;64927;48.214;16.378;2023-11-19T08:44:55;4.00;;;2.58;;
76167;SDS011;64927;48.214;16.378;2023-11-19T08:47:23;5.05;;;2.53;;
76167;SDS011;64927;48.214;16.378;2023-11-19T08:49:52;4.70;;;2.83;;
76167;SDS011;64927;48.214;16.378;2023-11-19T08:52:18;6.13;;;3.38;;
76167;SDS011;64927;48.214;16.378;2023-11-19T08:54:44;4.32;;;2.70;;
76167;SDS011;64927;48.214;16.378;2023-11-19T08:57:09;3.95;;;2.60;;
76167;SDS011;64927;48.214;16.378;2023-11-19T08:59:37;4.00;;;2.92;;
76167;SDS011;64927;48.214;16.378;2023-11-19T09:02:06;3.40;;;2.30;;
76167;SDS011;64927;48.214;16.378;2023-11-19T09:04:33;4.10;;;2.40;;
76167;SDS011;64927;48.214;16.378;2023-11-19T09:06:58;2.38;;;1.80;;
76167;SDS011;64927;48.214;16.378;2023-11-19T09:09:24;3.00;;;1.50;;
76167;SDS011;64927;48.214;16.378;2023-11-19T09:11:50;4.72;;;2.40;;
76167;SDS011;64927;48.214;16.378;2023-11-19T09:14:18;3.90;;;2.45;;
76167;SDS011;64927;48.214;16.378;2023-11-19T09:16:51;3.13;;;2.45;;
76167;SDS011;64927;48.214;16.378;2023-11-19T09:19:16;4.80;;;2.67;;
76167;SDS011;64927;48.214;16.378;2023-11-19T09:21:42;3.30;;;2.38;;
76167;SDS011;64927;48.214;16.378;2023-11-19T09:24:10;3.13;;;2.22;;
76167;SDS011;64927;48.214;16.378;2023-11-19T09:26:38;3.17;;;1.55;;
76167;SDS011;64927;48.214;16.378;2023-11-19T09:29:08;5.07;;;2.80;;
76167;SDS011;64927;48.214;16.378;2023-11-19T09:31:34;3.25;;;1.90;;
76167;SDS011;64927;48.214;16.378;2023-11-19T09:34:00;3.15;;;2.15;;
76167;SDS011;64927;48.214;16.378;2023-11-19T09:36:30;3.92;;;2.10;;
76167;SDS011;64927;48.214;16.378;2023-11-19T09:38:56;3.53;;;2.08;;
76167;SDS011;64927;48.214;16.378;2023-11-19T09:41:29;2.60;;;1.65;;
76167;SDS011;64927;48.214;16.378;2023-11-19T09:43:56;3.30;;;2.05;;
76167;SDS011;64927;48.214;16.378;2023-11-19T09:46:21;2.95;;;2.13;;
76167;SDS011;64927;48.214;16.378;2023-11-19T09:48:49;5.88;;;2.50;;
76167;SDS011;64927;48.214;16.378;2023-11-19T09:51:19;2.78;;;1.67;;
76167;SDS011;64927;48.214;16.378;2023-11-19T09:53:45;3.45;;;2.33;;
76167;SDS011;64927;48.214;16.378;2023-11-19T09:56:14;3.28;;;2.10;;
76167;SDS011;64927;48.214;16.378;2023-11-19T09:58:41;3.38;;;2.20;;
76167;SDS011;64927;48.214;16.378;2023-11-19T10:01:07;2.50;;;1.80;;
76167;SDS011;64927;48.214;16.378;2023-11-19T10:03:37;4.40;;;2.85;;
76167;SDS011;64927;48.214;16.378;2023-11-19T10:06:06;5.15;;;2.38;;
76167;SDS011;64927;48.214;16.378;2023-11-19T10:08:32;3.75;;;2.10;;
76167;SDS011;64927;48.214;16.378;2023-11-19T10:10:58;4.53;;;2.13;;
76167;SDS011;64927;48.214;16.378;2023-11-19T10:13:31;3.20;;;1.70;;
76167;SDS011;64927;48.214;16.378;2023-11-19T10:15:56;4.55;;;2.65;;
76167;SDS011;64927;48.214;16.378;2023-11-19T10:18:27;4.18;;;2.38;;
76167;SDS011;64927;48.214;16.378;2023-11-19T10:20:53;6.40;;;2.25;;
76167;SDS011;64927;48.214;16.378;2023-11-19T10:23:20;4.45;;;2.35;;
76167;SDS011;64927;48.214;16.378;2023-11-19T10:25:49;7.03;;;2.45;;
76167;SDS011;64927;48.214;16.378;2023-11-19T10:28:18;3.80;;;2.17;;
76167;SDS011;64927;48.214;16.378;2023-11-19T10:30:44;3.72;;;1.92;;
76167;SDS011;64927;48.214;16.378;2023-11-19T10:33:10;3.92;;;2.03;;
76167;SDS011;64927;48.214;16.378;2023-11-19T10:35:54;4.78;;;2.33;;
76167;SDS011;64927;48.214;16.378;2023-11-19T10:38:23;3.97;;;2.42;;
76167;SDS011;64927;48.214;16.378;2023-11-19T10:40:52;6.65;;;3.67;;
76167;SDS011;64927;48.214;16.378;2023-11-19T10:43:21;3.53;;;2.10;;
76167;SDS011;64927;48.214;16.378;2023-11-19T10:45:51;3.25;;;2.22;;
76167;SDS011;64927;48.214;16.378;2023-11-19T10:48:20;4.18;;;2.22;;
76167;SDS011;64927;48.214;16.378;2023-11-19T10:50:49;3.95;;;2.30;;
76167;SDS011;64927;48.214;16.378;2023-11-19T10:53:18;5.60;;;2.28;;
76167;SDS011;64927;48.214;16.378;2023-11-19T10:55:45;3.17;;;2.05;;
76167;SDS011;64927;48.214;16.378;2023-11-19T10:58:12;4.70;;;2.35;;
76167;SDS011;64927;48.214;16.378;2023-11-19T11:00:44;4.85;;;2.60;;
76167;SDS011;64927;48.214;16.378;2023-11-19T11:03:18;4.53;;;2.35;;
76167;SDS011;64927;48.214;16.378;2023-11-19T11:05:49;4.95;;;1.48;;
76167;SDS011;64927;48.214;16.378;2023-11-19T11:08:19;3.17;;;2.17;;
76167;SDS011;64927;48.214;16.378;2023-11-19T11:10:48;5.40;;;2.53;;
76167;SDS011;64927;48.214;16.378;2023-11-19T11:13:22;4.03;;;2.33;;
76167;SDS011;64927;48.214;16.378;2023-11-19T11:15:49;3.55;;;2.53;;
76167;SDS011;64927;48.214;16.378;2023-11-19T11:18:19;3.72;;;2.25;;
76167;SDS011;64927;48.214;16.378;2023-11-19T11:20:45;3.75;;;2.33;;
76167;SDS011;64927;48.214;16.378;2023-11-19T11:23:36;3.88;;;2.45;;
76167;SDS011;64927;48.214;16.378;2023-11-19T11:35:08;2.80;;;2.25;;
76167;SDS011;64927;48.214;16.378;2023-11-19T11:37:45;3.42;;;2.10;;
76167;SDS011;64927;48.214;16.378;2023-11-19T11:40:16;4.05;;;2.33;;
76167;SDS011;64927;48.214;16.378;2023-11-19T11:42:44;3.63;;;2.33;;
76167;SDS011;64927;48.214;16.378;2023-11-19T11:45:13;3.60;;;2.40;;
76167;SDS011;64927;48.214;16.378;2023-11-19T11:50:07;5.90;;;2.42;;
76167;SDS011;64927;48.214;16.378;2023-11-19T11:57:55;4.70;;;2.60;;
76167;SDS011;64927;48.214;16.378;2023-11-19T12:00:22;2.42;;;1.63;;
76167;SDS011;64927;48.214;16.378;2023-11-19T12:02:51;9.00;;;3.30;;
76167;SDS011;64927;48.214;16.378;2023-11-19T12:05:22;6.07;;;2.90;;
76167;SDS011;64927;48.214;16.378;2023-11-19T12:10:48;3.70;;;2.10;;
76167;SDS011;64927;48.214;16.378;2023-11-19T12:13:15;4.20;;;2.25;;
76167;SDS011;64927;48.214;16.378;2023-11-19T12:18:29;5.43;;;2.45;;
76167;SDS011;64927;48.214;16.378;2023-11-19T12:21:01;4.00;;;2.88;;
76167;SDS011;64927;48.214;16.378;2023-11-19T12:23:30;3.60;;;2.72;;
76167;SDS011;64927;48.214;16.378;2023-11-19T12:25:57;8.48;;;2.78;;
76167;SDS011;64927;48.214;16.378;2023-11-19T12:28:23;5.97;;;3.33;;
76167;SDS011;64927;48.214;16.378;2023-11-19T12:30:51;5.60;;;2.90;;
76167;SDS011;64927;48.214;16.378;2023-11-19T12:33:18;4.82;;;2.88;;
76167;SDS011;64927;48.214;16.378;2023-11-19T12:35:45;4.18;;;2.30;;
76167;SDS011;64927;48.214;16.378;2023-11-19T12:38:21;3.60;;;2.40;;
76167;SDS011;64927;48.214;16.378;2023-11-19T12:41:09;4.85;;;2.75;;
76167;SDS011;64927;48.214;16.378;2023-11-19T12:43:38;6.35;;;3.10;;
76167;SDS011;64927;48.214;16.378;2023-11-19T12:46:23;5.53;;;3.17;;
76167;SDS011;64927;48.214;16.378;2023-11-19T12:48:48;8.10;;;3.58;;
76167;SDS011;64927;48.214;16.378;2023-11-19T12:51:15;6.53;;;3.30;;
76167;SDS011;64927;48.214;16.378;2023-11-19T12:53:50;7.95;;;3.40;;
76167;SDS011;64927;48.214;16.378;2023-11-19T12:56:19;7.88;;;3.10;;
76167;SDS011;64927;48.214;16.378;2023-11-19T12:58:46;5.28;;;3.22;;
76167;SDS011;64927;48.214;16.378;2023-11-19T13:01:15;5.13;;;2.88;;
76167;SDS011;64927;48.214;16.378;2023-11-19T13:03:43;6.75;;;3.92;;
76167;SDS011;64927;48.214;16.378;2023-11-19T13:06:09;3.78;;;2.65;;
76167;SDS011;64927;48.214;16.378;2023-11-19T13:08:41;5.15;;;2.58;;
76167;SDS011;64927;48.214;16.378;2023-11-19T13:11:11;5.07;;;3.00;;
76167;SDS011;64927;48.214;16.378;2023-11-19T13:16:27;5.50;;;3.15;;
76167;SDS011;64927;48.214;16.378;2023-11-19T13:18:53;5.05;;;2.83;;
76167;SDS011;64927;48.214;16.378;2023-11-19T13:21:22;4.72;;;3.00;;
76167;SDS011;64927;48.214;16.378;2023-11-19T13:23:48;4.40;;;2.22;;
76167;SDS011;64927;48.214;16.378;2023-11-19T13:26:13;5.00;;;2.83;;
76167;SDS011;64927;48.214;16.378;2023-11-19T13:28:39;8.48;;;3.85;;
76167;SDS011;64927;48.214;16.378;2023-11-19T13:31:05;4.30;;;2.38;;
76167;SDS011;64927;48.214;16.378;2023-11-19T13:33:30;4.47;;;2.72;;
76167;SDS011;64927;48.214;16.378;2023-11-19T13:35:56;7.68;;;2.80;;
76167;SDS011;64927;48.214;16.378;2023-11-19T13:38:22;6.22;;;3.20;;
76167;SDS011;64927;48.214;16.378;2023-11-19T13:40:50;5.32;;;3.17;;
76167;SDS011;64927;48.214;16.378;2023-11-19T13:43:16;6.75;;;3.15;;
76167;SDS011;64927;48.214;16.378;2023-11-19T13:45:42;5.90;;;2.85;;
76167;SDS011;64927;48.214;16.378;2023-11-19T13:48:07;5.35;;;2.50;;
76167;SDS011;64927;48.214;16.378;2023-11-19T13:50:34;5.70;;;3.22;;
76167;SDS011;64927;48.214;16.378;2023-11-19T13:53:00;7.97;;;3.40;;
76167;SDS011;64927;48.214;16.378;2023-11-19T13:55:25;5.57;;;3.17;;
76167;SDS011;64927;48.214;16.378;2023-11-19T13:57:53;4.57;;;3.08;;
76167;SDS011;64927;48.214;16.378;2023-11-19T14:00:21;7.47;;;3.35;;
76167;SDS011;64927;48.214;16.378;2023-11-19T14:02:49;7.65;;;3.55;;
76167;SDS011;64927;48.214;16.378;2023-11-19T14:05:15;6.82;;;2.97;;
76167;SDS011;64927;48.214;16.378;2023-11-19T14:07:42;6.53;;;4.07;;
76167;SDS011;64927;48.214;16.378;2023-11-19T14:10:09;7.15;;;3.15;;
76167;SDS011;64927;48.214;16.378;2023-11-19T14:12:38;6.25;;;3.30;;
76167;SDS011;64927;48.214;16.378;2023-11-19T14:15:04;5.60;;;3.13;;
76167;SDS011;64927;48.214;16.378;2023-11-19T14:17:31;9.57;;;3.30;;
76167;SDS011;64927;48.214;16.378;2023-11-19T14:19:57;8.65;;;3.08;;
76167;SDS011;64927;48.214;16.378;2023-11-19T14:22:25;8.05;;;3.58;;
76167;SDS011;64927;48.214;16.378;2023-11-19T14:24:51;6.57;;;3.50;;
76167;SDS011;64927;48.214;16.378;2023-11-19T14:27:17;7.43;;;3.75;;
76167;SDS011;64927;48.214;16.378;2023-11-19T14:29:43;6.30;;;3.67;;
76167;SDS011;64927;48.214;16.378;2023-11-19T14:32:11;7.70;;;3.30;;
76167;SDS011;64927;48.214;16.378;2023-11-19T14:34:36;8.35;;;3.70;;
76167;SDS011;64927;48.214;16.378;2023-11-19T14:37:03;7.20;;;3.60;;
76167;SDS011;64927;48.214;16.378;2023-11-19T14:39:29;7.93;;;3.70;;
76167;SDS011;64927;48.214;16.378;2023-11-19T14:41:56;8.05;;;3.80;;
76167;SDS011;64927;48.214;16.378;2023-11-19T14:44:29;8.90;;;4.03;;
76167;SDS011;64927;48.214;16.378;2023-11-19T14:46:55;8.70;;;3.78;;
76167;SDS011;64927;48.214;16.378;2023-11-19T14:49:21;7.30;;;3.85;;
76167;SDS011;64927;48.214;16.378;2023-11-19T14:51:51;8.35;;;3.85;;
76167;SDS011;64927;48.214;16.378;2023-11-19T14:54:19;8.23;;;4.32;;
76167;SDS011;64927;48.214;16.378;2023-11-19T14:56:47;6.38;;;4.03;;
76167;SDS011;64927;48.214;16.378;2023-11-19T14:59:12;8.30;;;4.65;;
76167;SDS011;64927;48.214;16.378;2023-11-19T15:01:38;6.28;;;3.80;;